sensor_id;sensor_type;location;lat;lon;timestamp;P1;durP1;ratioP1;P2;durP2;ratioP2
55090;SDS011;40985;53.180;5.800;2024-02-26T00:01:58;19.15;;;12.32;;
55090;SDS011;40985;53.180;5.800;2024-02-26T00:04:24;18.40;;;12.70;;
55090;SDS011;40985;53.180;5.800;2024-02-26T00:06:50;21.00;;;12.48;;
55090;SDS011;40985;53.180;5.800;2024-02-26T00:09:16;18.92;;;12.82;;
55090;SDS011;40985;53.180;5.800;2024-02-26T00:11:42;19.65;;;13.02;;
55090;SDS011;40985;53.180;5.800;2024-02-26T00:14:08;17.42;;;12.50;;
55090;SDS011;40985;53.180;5.800;2024-02-26T00:16:33;16.33;;;11.70;;
55090;SDS011;40985;53.180;5.800;2024-02-26T00:18:59;17.90;;;12.65;;
55090;SDS011;40985;53.180;5.800;2024-02-26T00:21:24;15.95;;;12.65;;
55090;SDS011;40985;53.180;5.800;2024-02-26T00:23:50;18.67;;;12.70;;
55090;SDS011;40985;53.180;5.800;2024-02-26T00:26:17;18.90;;;12.68;;
55090;SDS011;40985;53.180;5.800;2024-02-26T00:28:43;19.95;;;12.60;;
55090;SDS011;40985;53.180;5.800;2024-02-26T00:31:09;18.23;;;12.30;;
55090;SDS011;40985;53.180;5.800;2024-02-26T00:33:35;18.65;;;12.15;;
55090;SDS011;40985;53.180;5.800;2024-02-26T00:36:00;18.92;;;11.90;;
55090;SDS011;40985;53.180;5.800;2024-02-26T00:38:26;20.70;;;12.38;;
55090;SDS011;40985;53.180;5.800;2024-02-26T00:40:52;18.50;;;12.00;;
55090;SDS011;40985;53.180;5.800;2024-02-26T00:43:17;23.60;;;12.15;;
55090;SDS011;40985;53.180;5.800;2024-02-26T00:45:43;16.30;;;11.10;;
55090;SDS011;40985;53.180;5.800;2024-02-26T00:48:09;15.00;;;11.40;;
55090;SDS011;40985;53.180;5.800;2024-02-26T00:50:34;17.65;;;11.38;;
55090;SDS011;40985;53.180;5.800;2024-02-26T00:53:01;13.93;;;10.10;;
55090;SDS011;40985;53.180;5.800;2024-02-26T00:55:26;14.18;;;10.57;;
55090;SDS011;40985;53.180;5.800;2024-02-26T00:57:52;16.30;;;10.52;;
55090;SDS011;40985;53.180;5.800;2024-02-26T01:00:18;14.18;;;9.38;;
55090;SDS011;40985;53.180;5.800;2024-02-26T01:02:44;12.38;;;9.40;;
55090;SDS011;40985;53.180;5.800;2024-02-26T01:05:12;12.30;;;9.07;;
55090;SDS011;40985;53.180;5.800;2024-02-26T01:07:38;12.90;;;9.40;;
55090;SDS011;40985;53.180;5.800;2024-02-26T01:10:07;10.65;;;8.02;;
55090;SDS011;40985;53.180;5.800;2024-02-26T01:12:34;10.27;;;8.43;;
55090;SDS011;40985;53.180;5.800;2024-02-26T01:15:03;11.70;;;7.53;;
55090;SDS011;40985;53.180;5.800;2024-02-26T01:17:29;9.77;;;7.20;;
55090;SDS011;40985;53.180;5.800;2024-02-26T01:19:55;12.30;;;7.20;;
55090;SDS011;40985;53.180;5.800;2024-02-26T01:22:21;10.85;;;7.60;;
55090;SDS011;40985;53.180;5.800;2024-02-26T01:24:47;12.00;;;7.03;;
55090;SDS011;40985;53.180;5.800;2024-02-26T01:27:13;9.02;;;6.90;;
55090;SDS011;40985;53.180;5.800;2024-02-26T01:29:40;10.00;;;7.05;;
55090;SDS011;40985;53.180;5.800;2024-02-26T01:32:06;7.53;;;6.78;;
55090;SDS011;40985;53.180;5.800;2024-02-26T01:34:32;8.25;;;5.95;;
55090;SDS011;40985;53.180;5.800;2024-02-26T01:36:58;8.98;;;6.90;;
55090;SDS011;40985;53.180;5.800;2024-02-26T01:39:23;11.27;;;7.35;;
55090;SDS011;40985;53.180;5.800;2024-02-26T01:41:49;12.57;;;6.15;;
55090;SDS011;40985;53.180;5.800;2024-02-26T01:44:15;7.55;;;6.13;;
55090;SDS011;40985;53.180;5.800;2024-02-26T01:46:41;7.70;;;5.70;;
55090;SDS011;40985;53.180;5.800;2024-02-26T01:49:07;8.48;;;6.63;;
55090;SDS011;40985;53.180;5.800;2024-02-26T01:51:37;6.32;;;5.38;;
55090;SDS011;40985;53.180;5.800;2024-02-26T01:54:05;6.20;;;5.57;;
55090;SDS011;40985;53.180;5.800;2024-02-26T01:56:32;6.20;;;5.70;;
55090;SDS011;40985;53.180;5.800;2024-02-26T01:59:00;7.57;;;5.90;;
55090;SDS011;40985;53.180;5.800;2024-02-26T02:01:27;9.00;;;6.30;;
55090;SDS011;40985;53.180;5.800;2024-02-26T02:03:54;7.43;;;5.78;;
55090;SDS011;40985;53.180;5.800;2024-02-26T02:06:23;10.32;;;6.95;;
55090;SDS011;40985;53.180;5.800;2024-02-26T02:08:49;5.50;;;4.55;;
55090;SDS011;40985;53.180;5.800;2024-02-26T02:11:14;6.38;;;5.38;;
55090;SDS011;40985;53.180;5.800;2024-02-26T02:13:41;6.40;;;5.00;;
55090;SDS011;40985;53.180;5.800;2024-02-26T02:16:07;5.93;;;5.00;;
55090;SDS011;40985;53.180;5.800;2024-02-26T02:18:33;5.13;;;4.50;;
55090;SDS011;40985;53.180;5.800;2024-02-26T02:21:01;5.20;;;4.72;;
55090;SDS011;40985;53.180;5.800;2024-02-26T02:23:27;6.18;;;4.72;;
55090;SDS011;40985;53.180;5.800;2024-02-26T02:25:53;5.18;;;4.00;;
55090;SDS011;40985;53.180;5.800;2024-02-26T02:28:22;4.43;;;3.97;;
55090;SDS011;40985;53.180;5.800;2024-02-26T02:30:50;4.63;;;3.78;;
55090;SDS011;40985;53.180;5.800;2024-02-26T02:33:16;5.95;;;3.40;;
55090;SDS011;40985;53.180;5.800;2024-02-26T02:35:42;6.30;;;3.45;;
55090;SDS011;40985;53.180;5.800;2024-02-26T02:38:08;4.45;;;3.15;;
55090;SDS011;40985;53.180;5.800;2024-02-26T02:40:33;3.60;;;3.30;;
55090;SDS011;40985;53.180;5.800;2024-02-26T02:42:59;4.43;;;3.72;;
55090;SDS011;40985;53.180;5.800;2024-02-26T02:45:27;4.95;;;3.35;;
55090;SDS011;40985;53.180;5.800;2024-02-26T02:47:53;4.55;;;3.88;;
55090;SDS011;40985;53.180;5.800;2024-02-26T02:50:19;4.32;;;3.90;;
55090;SDS011;40985;53.180;5.800;2024-02-26T02:52:44;4.63;;;3.97;;
55090;SDS011;40985;53.180;5.800;2024-02-26T02:55:10;6.03;;;4.20;;
55090;SDS011;40985;53.180;5.800;2024-02-26T02:57:36;5.45;;;4.47;;
55090;SDS011;40985;53.180;5.800;2024-02-26T03:00:07;4.90;;;4.45;;
55090;SDS011;40985;53.180;5.800;2024-02-26T03:02:33;6.60;;;4.70;;
55090;SDS011;40985;53.180;5.800;2024-02-26T03:05:01;5.28;;;3.85;;
55090;SDS011;40985;53.180;5.800;2024-02-26T03:07:28;4.07;;;3.72;;
55090;SDS011;40985;53.180;5.800;2024-02-26T03:09:54;5.60;;;3.33;;
55090;SDS011;40985;53.180;5.800;2024-02-26T03:12:19;6.28;;;3.95;;
55090;SDS011;40985;53.180;5.800;2024-02-26T03:14:45;6.32;;;3.97;;
55090;SDS011;40985;53.180;5.800;2024-02-26T03:17:11;4.80;;;4.25;;
55090;SDS011;40985;53.180;5.800;2024-02-26T03:19:37;8.25;;;4.97;;
55090;SDS011;40985;53.180;5.800;2024-02-26T03:22:03;6.65;;;4.65;;
55090;SDS011;40985;53.180;5.800;2024-02-26T03:24:28;6.30;;;5.28;;
55090;SDS011;40985;53.180;5.800;2024-02-26T03:26:54;7.28;;;5.35;;
55090;SDS011;40985;53.180;5.800;2024-02-26T03:29:20;8.70;;;5.28;;
55090;SDS011;40985;53.180;5.800;2024-02-26T03:31:46;6.13;;;4.70;;
55090;SDS011;40985;53.180;5.800;2024-02-26T03:34:11;4.40;;;3.97;;
55090;SDS011;40985;53.180;5.800;2024-02-26T03:36:38;10.07;;;4.88;;
55090;SDS011;40985;53.180;5.800;2024-02-26T03:39:04;5.00;;;4.57;;
55090;SDS011;40985;53.180;5.800;2024-02-26T03:41:32;7.07;;;5.22;;
55090;SDS011;40985;53.180;5.800;2024-02-26T03:43:59;7.32;;;5.35;;
55090;SDS011;40985;53.180;5.800;2024-02-26T03:46:24;8.65;;;5.00;;
55090;SDS011;40985;53.180;5.800;2024-02-26T03:48:50;6.68;;;4.40;;
55090;SDS011;40985;53.180;5.800;2024-02-26T03:51:15;4.95;;;4.47;;
55090;SDS011;40985;53.180;5.800;2024-02-26T03:53:41;4.50;;;4.07;;
55090;SDS011;40985;53.180;5.800;2024-02-26T03:56:07;6.15;;;4.93;;
55090;SDS011;40985;53.180;5.800;2024-02-26T03:58:32;9.17;;;5.50;;
55090;SDS011;40985;53.180;5.800;2024-02-26T04:00:59;5.63;;;4.28;;
55090;SDS011;40985;53.180;5.800;2024-02-26T04:03:25;5.90;;;5.22;;
55090;SDS011;40985;53.180;5.800;2024-02-26T04:05:51;8.88;;;4.70;;
55090;SDS011;40985;53.180;5.800;2024-02-26T04:08:16;9.27;;;5.05;;
55090;SDS011;40985;53.180;5.800;2024-02-26T04:10:42;8.57;;;5.07;;
55090;SDS011;40985;53.180;5.800;2024-02-26T04:13:08;9.98;;;6.40;;
55090;SDS011;40985;53.180;5.800;2024-02-26T04:15:33;5.63;;;4.82;;
55090;SDS011;40985;53.180;5.800;2024-02-26T04:17:59;10.68;;;5.32;;
55090;SDS011;40985;53.180;5.800;2024-02-26T04:20:25;5.35;;;4.63;;
55090;SDS011;40985;53.180;5.800;2024-02-26T04:22:51;5.30;;;4.80;;
55090;SDS011;40985;53.180;5.800;2024-02-26T04:25:17;8.13;;;5.88;;
55090;SDS011;40985;53.180;5.800;2024-02-26T04:27:42;6.97;;;5.50;;
55090;SDS011;40985;53.180;5.800;2024-02-26T04:30:08;10.00;;;5.80;;
55090;SDS011;40985;53.180;5.800;2024-02-26T04:32:34;5.75;;;4.80;;
55090;SDS011;40985;53.180;5.800;2024-02-26T04:35:01;9.05;;;5.38;;
55090;SDS011;40985;53.180;5.800;2024-02-26T04:37:27;8.35;;;4.80;;
55090;SDS011;40985;53.180;5.800;2024-02-26T04:39:57;6.20;;;4.75;;
55090;SDS011;40985;53.180;5.800;2024-02-26T04:42:26;6.43;;;4.65;;
55090;SDS011;40985;53.180;5.800;2024-02-26T04:44:52;5.07;;;4.45;;
55090;SDS011;40985;53.180;5.800;2024-02-26T04:47:19;6.07;;;4.55;;
55090;SDS011;40985;53.180;5.800;2024-02-26T04:49:47;4.90;;;4.18;;
55090;SDS011;40985;53.180;5.800;2024-02-26T04:52:16;7.65;;;4.45;;
55090;SDS011;40985;53.180;5.800;2024-02-26T04:54:43;4.78;;;4.38;;
55090;SDS011;40985;53.180;5.800;2024-02-26T04:57:09;5.72;;;4.15;;
55090;SDS011;40985;53.180;5.800;2024-02-26T04:59:35;3.90;;;3.60;;
55090;SDS011;40985;53.180;5.800;2024-02-26T05:02:00;4.65;;;3.45;;
55090;SDS011;40985;53.180;5.800;2024-02-26T05:04:26;4.10;;;3.42;;
55090;SDS011;40985;53.180;5.800;2024-02-26T05:06:51;3.80;;;3.38;;
55090;SDS011;40985;53.180;5.800;2024-02-26T05:09:18;2.92;;;2.63;;
55090;SDS011;40985;53.180;5.800;2024-02-26T05:11:44;3.28;;;3.08;;
55090;SDS011;40985;53.180;5.800;2024-02-26T05:14:09;3.45;;;2.80;;
55090;SDS011;40985;53.180;5.800;2024-02-26T05:16:35;5.80;;;2.78;;
55090;SDS011;40985;53.180;5.800;2024-02-26T05:19:01;5.60;;;2.88;;
55090;SDS011;40985;53.180;5.800;2024-02-26T05:21:26;3.28;;;2.20;;
55090;SDS011;40985;53.180;5.800;2024-02-26T05:23:52;3.25;;;2.72;;
55090;SDS011;40985;53.180;5.800;2024-02-26T05:26:21;3.05;;;2.75;;
55090;SDS011;40985;53.180;5.800;2024-02-26T05:28:48;2.78;;;2.08;;
55090;SDS011;40985;53.180;5.800;2024-02-26T05:31:14;3.53;;;1.80;;
55090;SDS011;40985;53.180;5.800;2024-02-26T05:33:40;6.80;;;1.90;;
55090;SDS011;40985;53.180;5.800;2024-02-26T05:36:06;4.28;;;1.38;;
55090;SDS011;40985;53.180;5.800;2024-02-26T05:38:31;1.90;;;1.63;;
55090;SDS011;40985;53.180;5.800;2024-02-26T05:40:58;2.83;;;0.73;;
55090;SDS011;40985;53.180;5.800;2024-02-26T05:43:26;2.58;;;0.90;;
55090;SDS011;40985;53.180;5.800;2024-02-26T05:45:52;3.22;;;1.50;;
55090;SDS011;40985;53.180;5.800;2024-02-26T05:48:18;3.75;;;1.10;;
55090;SDS011;40985;53.180;5.800;2024-02-26T05:50:44;3.80;;;0.88;;
55090;SDS011;40985;53.180;5.800;2024-02-26T05:53:11;3.00;;;0.90;;
55090;SDS011;40985;53.180;5.800;2024-02-26T05:55:36;2.78;;;0.50;;
55090;SDS011;40985;53.180;5.800;2024-02-26T05:58:02;2.42;;;1.10;;
55090;SDS011;40985;53.180;5.800;2024-02-26T06:00:29;2.75;;;0.85;;
55090;SDS011;40985;53.180;5.800;2024-02-26T06:02:54;1.02;;;0.93;;
55090;SDS011;40985;53.180;5.800;2024-02-26T06:05:20;2.45;;;0.77;;
55090;SDS011;40985;53.180;5.800;2024-02-26T06:07:46;2.90;;;0.70;;
55090;SDS011;40985;53.180;5.800;2024-02-26T06:10:11;1.85;;;0.75;;
55090;SDS011;40985;53.180;5.800;2024-02-26T06:12:38;3.50;;;1.08;;
55090;SDS011;40985;53.180;5.800;2024-02-26T06:15:05;2.00;;;0.98;;
55090;SDS011;40985;53.180;5.800;2024-02-26T06:17:31;2.65;;;1.00;;
55090;SDS011;40985;53.180;5.800;2024-02-26T06:19:57;2.50;;;0.93;;
55090;SDS011;40985;53.180;5.800;2024-02-26T06:22:24;4.55;;;0.95;;
55090;SDS011;40985;53.180;5.800;2024-02-26T06:24:50;2.58;;;0.93;;
55090;SDS011;40985;53.180;5.800;2024-02-26T06:27:16;2.25;;;1.08;;
55090;SDS011;40985;53.180;5.800;2024-02-26T06:29:41;2.90;;;0.88;;
55090;SDS011;40985;53.180;5.800;2024-02-26T06:32:07;2.75;;;0.93;;
55090;SDS011;40985;53.180;5.800;2024-02-26T06:34:33;1.73;;;0.60;;
55090;SDS011;40985;53.180;5.800;2024-02-26T06:36:58;2.88;;;0.60;;
55090;SDS011;40985;53.180;5.800;2024-02-26T06:39:24;4.82;;;0.80;;
55090;SDS011;40985;53.180;5.800;2024-02-26T06:41:50;2.28;;;0.40;;
55090;SDS011;40985;53.180;5.800;2024-02-26T06:44:15;3.13;;;0.30;;
55090;SDS011;40985;53.180;5.800;2024-02-26T06:46:41;3.50;;;0.50;;
55090;SDS011;40985;53.180;5.800;2024-02-26T06:49:06;2.88;;;0.25;;
55090;SDS011;40985;53.180;5.800;2024-02-26T06:51:32;2.80;;;0.40;;
55090;SDS011;40985;53.180;5.800;2024-02-26T06:53:58;6.00;;;1.15;;
55090;SDS011;40985;53.180;5.800;2024-02-26T06:56:23;2.92;;;0.30;;
55090;SDS011;40985;53.180;5.800;2024-02-26T06:58:49;2.25;;;0.32;;
55090;SDS011;40985;53.180;5.800;2024-02-26T07:01:15;1.85;;;0.40;;
55090;SDS011;40985;53.180;5.800;2024-02-26T07:03:41;3.65;;;0.40;;
55090;SDS011;40985;53.180;5.800;2024-02-26T07:06:06;1.70;;;0.40;;
55090;SDS011;40985;53.180;5.800;2024-02-26T07:08:33;4.60;;;0.43;;
55090;SDS011;40985;53.180;5.800;2024-02-26T07:10:59;1.95;;;0.40;;
55090;SDS011;40985;53.180;5.800;2024-02-26T07:13:25;1.90;;;0.40;;
55090;SDS011;40985;53.180;5.800;2024-02-26T07:15:50;1.70;;;0.55;;
55090;SDS011;40985;53.180;5.800;2024-02-26T07:18:16;3.95;;;0.50;;
55090;SDS011;40985;53.180;5.800;2024-02-26T07:20:42;3.15;;;0.50;;
55090;SDS011;40985;53.180;5.800;2024-02-26T07:23:07;2.38;;;0.55;;
55090;SDS011;40985;53.180;5.800;2024-02-26T07:25:33;2.90;;;0.63;;
55090;SDS011;40985;53.180;5.800;2024-02-26T07:27:59;2.15;;;0.60;;
55090;SDS011;40985;53.180;5.800;2024-02-26T07:30:24;2.70;;;0.63;;
55090;SDS011;40985;53.180;5.800;2024-02-26T07:32:50;5.30;;;0.75;;
55090;SDS011;40985;53.180;5.800;2024-02-26T07:35:16;3.45;;;0.63;;
55090;SDS011;40985;53.180;5.800;2024-02-26T07:37:42;2.45;;;0.80;;
55090;SDS011;40985;53.180;5.800;2024-02-26T07:40:08;1.83;;;0.52;;
55090;SDS011;40985;53.180;5.800;2024-02-26T07:42:34;4.07;;;0.60;;
55090;SDS011;40985;53.180;5.800;2024-02-26T07:45:00;2.63;;;0.40;;
55090;SDS011;40985;53.180;5.800;2024-02-26T07:47:27;3.35;;;0.60;;
55090;SDS011;40985;53.180;5.800;2024-02-26T07:49:52;2.30;;;0.60;;
55090;SDS011;40985;53.180;5.800;2024-02-26T07:52:18;3.03;;;0.65;;
55090;SDS011;40985;53.180;5.800;2024-02-26T07:54:44;4.55;;;0.70;;
55090;SDS011;40985;53.180;5.800;2024-02-26T07:57:09;3.17;;;1.00;;
55090;SDS011;40985;53.180;5.800;2024-02-26T07:59:35;4.15;;;0.65;;
55090;SDS011;40985;53.180;5.800;2024-02-26T08:02:01;3.72;;;0.65;;
55090;SDS011;40985;53.180;5.800;2024-02-26T08:04:28;2.80;;;0.70;;
55090;SDS011;40985;53.180;5.800;2024-02-26T08:06:54;3.28;;;0.95;;
55090;SDS011;40985;53.180;5.800;2024-02-26T08:09:20;4.93;;;1.55;;
55090;SDS011;40985;53.180;5.800;2024-02-26T08:11:45;5.90;;;1.10;;
55090;SDS011;40985;53.180;5.800;2024-02-26T08:14:11;3.40;;;1.27;;
55090;SDS011;40985;53.180;5.800;2024-02-26T08:16:37;4.15;;;1.77;;
55090;SDS011;40985;53.180;5.800;2024-02-26T08:19:02;6.40;;;1.35;;
55090;SDS011;40985;53.180;5.800;2024-02-26T08:21:28;6.95;;;1.60;;
55090;SDS011;40985;53.180;5.800;2024-02-26T08:23:54;4.18;;;2.47;;
55090;SDS011;40985;53.180;5.800;2024-02-26T08:26:20;4.78;;;1.25;;
55090;SDS011;40985;53.180;5.800;2024-02-26T08:28:47;2.97;;;1.50;;
55090;SDS011;40985;53.180;5.800;2024-02-26T08:31:14;3.50;;;1.33;;
55090;SDS011;40985;53.180;5.800;2024-02-26T08:33:40;3.60;;;1.75;;
55090;SDS011;40985;53.180;5.800;2024-02-26T08:36:05;4.65;;;1.90;;
55090;SDS011;40985;53.180;5.800;2024-02-26T08:38:31;4.28;;;1.13;;
55090;SDS011;40985;53.180;5.800;2024-02-26T08:41:00;4.50;;;1.50;;
55090;SDS011;40985;53.180;5.800;2024-02-26T08:43:27;3.15;;;0.90;;
55090;SDS011;40985;53.180;5.800;2024-02-26T08:45:52;3.78;;;1.48;;
55090;SDS011;40985;53.180;5.800;2024-02-26T08:48:18;2.97;;;0.80;;
55090;SDS011;40985;53.180;5.800;2024-02-26T08:50:44;5.07;;;1.10;;
55090;SDS011;40985;53.180;5.800;2024-02-26T08:53:09;2.25;;;0.93;;
55090;SDS011;40985;53.180;5.800;2024-02-26T08:55:35;4.22;;;1.13;;
55090;SDS011;40985;53.180;5.800;2024-02-26T08:58:01;4.28;;;0.75;;
55090;SDS011;40985;53.180;5.800;2024-02-26T09:00:26;2.72;;;1.17;;
55090;SDS011;40985;53.180;5.800;2024-02-26T09:02:52;1.95;;;0.70;;
55090;SDS011;40985;53.180;5.800;2024-02-26T09:05:18;4.95;;;0.70;;
55090;SDS011;40985;53.180;5.800;2024-02-26T09:07:43;4.90;;;0.50;;
55090;SDS011;40985;53.180;5.800;2024-02-26T09:10:09;6.00;;;0.80;;
55090;SDS011;40985;53.180;5.800;2024-02-26T09:12:35;4.47;;;0.70;;
55090;SDS011;40985;53.180;5.800;2024-02-26T09:15:02;1.75;;;0.60;;
55090;SDS011;40985;53.180;5.800;2024-02-26T09:17:28;4.53;;;0.77;;
55090;SDS011;40985;53.180;5.800;2024-02-26T09:19:54;4.13;;;0.50;;
55090;SDS011;40985;53.180;5.800;2024-02-26T09:22:20;3.35;;;1.60;;
55090;SDS011;40985;53.180;5.800;2024-02-26T09:24:45;2.90;;;0.68;;
55090;SDS011;40985;53.180;5.800;2024-02-26T09:27:11;3.50;;;0.50;;
55090;SDS011;40985;53.180;5.800;2024-02-26T09:29:37;2.53;;;0.50;;
55090;SDS011;40985;53.180;5.800;2024-02-26T09:32:02;3.25;;;1.05;;
55090;SDS011;40985;53.180;5.800;2024-02-26T09:34:28;4.00;;;0.50;;
55090;SDS011;40985;53.180;5.800;2024-02-26T09:36:54;3.50;;;0.50;;
55090;SDS011;40985;53.180;5.800;2024-02-26T09:39:20;2.22;;;0.85;;
55090;SDS011;40985;53.180;5.800;2024-02-26T09:41:47;2.38;;;0.60;;
55090;SDS011;40985;53.180;5.800;2024-02-26T09:44:18;2.08;;;0.65;;
55090;SDS011;40985;53.180;5.800;2024-02-26T09:46:47;2.50;;;0.30;;
55090;SDS011;40985;53.180;5.800;2024-02-26T09:49:14;5.18;;;0.50;;
55090;SDS011;40985;53.180;5.800;2024-02-26T09:51:40;3.85;;;0.55;;
55090;SDS011;40985;53.180;5.800;2024-02-26T09:54:07;3.88;;;0.60;;
55090;SDS011;40985;53.180;5.800;2024-02-26T09:56:35;3.22;;;0.82;;
55090;SDS011;40985;53.180;5.800;2024-02-26T09:59:04;2.97;;;0.38;;
55090;SDS011;40985;53.180;5.800;2024-02-26T10:01:35;2.90;;;0.47;;
55090;SDS011;40985;53.180;5.800;2024-02-26T10:04:03;5.97;;;0.40;;
55090;SDS011;40985;53.180;5.800;2024-02-26T10:06:29;3.88;;;0.50;;
55090;SDS011;40985;53.180;5.800;2024-02-26T10:08:56;0.90;;;0.40;;
55090;SDS011;40985;53.180;5.800;2024-02-26T10:11:24;4.22;;;0.63;;
55090;SDS011;40985;53.180;5.800;2024-02-26T10:13:50;4.22;;;0.70;;
55090;SDS011;40985;53.180;5.800;2024-02-26T10:16:16;2.88;;;0.30;;
55090;SDS011;40985;53.180;5.800;2024-02-26T10:18:48;2.53;;;0.30;;
55090;SDS011;40985;53.180;5.800;2024-02-26T10:21:18;3.65;;;0.28;;
55090;SDS011;40985;53.180;5.800;2024-02-26T10:23:48;2.50;;;0.40;;
55090;SDS011;40985;53.180;5.800;2024-02-26T10:26:14;4.32;;;0.50;;
55090;SDS011;40985;53.180;5.800;2024-02-26T10:28:44;0.75;;;0.30;;
55090;SDS011;40985;53.180;5.800;2024-02-26T10:31:11;2.20;;;0.30;;
55090;SDS011;40985;53.180;5.800;2024-02-26T10:33:39;1.33;;;0.30;;
55090;SDS011;40985;53.180;5.800;2024-02-26T10:36:06;4.32;;;0.40;;
55090;SDS011;40985;53.180;5.800;2024-02-26T10:38:33;2.03;;;0.40;;
55090;SDS011;40985;53.180;5.800;2024-02-26T10:41:01;1.95;;;0.65;;
55090;SDS011;40985;53.180;5.800;2024-02-26T10:43:37;1.38;;;0.47;;
55090;SDS011;40985;53.180;5.800;2024-02-26T10:46:03;2.30;;;0.60;;
55090;SDS011;40985;53.180;5.800;2024-02-26T10:48:30;2.75;;;0.50;;
55090;SDS011;40985;53.180;5.800;2024-02-26T10:50:56;1.45;;;0.43;;
55090;SDS011;40985;53.180;5.800;2024-02-26T10:53:23;6.22;;;1.33;;
55090;SDS011;40985;53.180;5.800;2024-02-26T10:55:57;2.55;;;0.73;;
55090;SDS011;40985;53.180;5.800;2024-02-26T10:58:26;4.78;;;0.50;;
55090;SDS011;40985;53.180;5.800;2024-02-26T11:00:53;3.15;;;0.70;;
55090;SDS011;40985;53.180;5.800;2024-02-26T11:03:22;1.70;;;0.60;;
55090;SDS011;40985;53.180;5.800;2024-02-26T11:05:48;3.03;;;0.95;;
55090;SDS011;40985;53.180;5.800;2024-02-26T11:08:14;6.13;;;0.88;;
55090;SDS011;40985;53.180;5.800;2024-02-26T11:10:43;2.28;;;0.80;;
55090;SDS011;40985;53.180;5.800;2024-02-26T11:13:10;5.70;;;0.93;;
55090;SDS011;40985;53.180;5.800;2024-02-26T11:15:39;3.47;;;0.75;;
55090;SDS011;40985;53.180;5.800;2024-02-26T11:18:05;3.95;;;0.90;;
55090;SDS011;40985;53.180;5.800;2024-02-26T11:20:33;4.45;;;0.95;;
55090;SDS011;40985;53.180;5.800;2024-02-26T11:23:03;4.57;;;0.90;;
55090;SDS011;40985;53.180;5.800;2024-02-26T11:25:29;2.28;;;1.00;;
55090;SDS011;40985;53.180;5.800;2024-02-26T11:27:56;3.15;;;0.90;;
55090;SDS011;40985;53.180;5.800;2024-02-26T11:30:26;3.05;;;0.60;;
55090;SDS011;40985;53.180;5.800;2024-02-26T11:32:56;3.85;;;0.60;;
55090;SDS011;40985;53.180;5.800;2024-02-26T11:35:22;5.05;;;0.73;;
55090;SDS011;40985;53.180;5.800;2024-02-26T11:37:55;4.25;;;0.85;;
55090;SDS011;40985;53.180;5.800;2024-02-26T11:40:24;2.17;;;1.20;;
55090;SDS011;40985;53.180;5.800;2024-02-26T11:42:50;4.43;;;0.98;;
55090;SDS011;40985;53.180;5.800;2024-02-26T11:50:46;4.18;;;0.90;;
55090;SDS011;40985;53.180;5.800;2024-02-26T11:53:19;3.83;;;0.80;;
55090;SDS011;40985;53.180;5.800;2024-02-26T11:58:38;2.97;;;1.00;;
55090;SDS011;40985;53.180;5.800;2024-02-26T12:01:04;6.82;;;1.90;;
55090;SDS011;40985;53.180;5.800;2024-02-26T12:03:30;4.13;;;1.15;;
55090;SDS011;40985;53.180;5.800;2024-02-26T12:05:56;7.85;;;1.50;;
55090;SDS011;40985;53.180;5.800;2024-02-26T12:08:22;12.30;;;2.60;;
55090;SDS011;40985;53.180;5.800;2024-02-26T12:10:50;8.63;;;1.92;;
55090;SDS011;40985;53.180;5.800;2024-02-26T12:13:20;5.82;;;1.58;;
55090;SDS011;40985;53.180;5.800;2024-02-26T12:15:56;4.07;;;1.80;;
55090;SDS011;40985;53.180;5.800;2024-02-26T12:18:23;6.78;;;2.03;;
55090;SDS011;40985;53.180;5.800;2024-02-26T12:21:01;8.68;;;2.80;;
55090;SDS011;40985;53.180;5.800;2024-02-26T12:23:28;6.68;;;1.67;;
55090;SDS011;40985;53.180;5.800;2024-02-26T12:26:01;14.45;;;1.73;;
55090;SDS011;40985;53.180;5.800;2024-02-26T12:28:28;5.55;;;1.13;;
55090;SDS011;40985;53.180;5.800;2024-02-26T12:30:54;6.80;;;0.90;;
55090;SDS011;40985;53.180;5.800;2024-02-26T12:33:20;6.32;;;0.98;;
55090;SDS011;40985;53.180;5.800;2024-02-26T12:35:46;6.53;;;1.60;;
55090;SDS011;40985;53.180;5.800;2024-02-26T12:38:16;7.18;;;1.27;;
55090;SDS011;40985;53.180;5.800;2024-02-26T12:40:41;6.70;;;1.52;;
55090;SDS011;40985;53.180;5.800;2024-02-26T12:43:07;7.97;;;2.13;;
55090;SDS011;40985;53.180;5.800;2024-02-26T12:45:39;6.95;;;1.50;;
55090;SDS011;40985;53.180;5.800;2024-02-26T12:48:06;5.30;;;1.10;;
55090;SDS011;40985;53.180;5.800;2024-02-26T12:50:32;5.57;;;1.25;;
55090;SDS011;40985;53.180;5.800;2024-02-26T12:52:58;9.43;;;2.05;;
55090;SDS011;40985;53.180;5.800;2024-02-26T12:55:24;6.38;;;1.10;;
55090;SDS011;40985;53.180;5.800;2024-02-26T12:57:51;6.03;;;2.05;;
55090;SDS011;40985;53.180;5.800;2024-02-26T13:00:21;6.65;;;1.70;;
55090;SDS011;40985;53.180;5.800;2024-02-26T13:02:49;8.45;;;1.55;;
55090;SDS011;40985;53.180;5.800;2024-02-26T13:05:15;4.80;;;1.20;;
55090;SDS011;40985;53.180;5.800;2024-02-26T13:07:44;13.27;;;2.55;;
55090;SDS011;40985;53.180;5.800;2024-02-26T13:10:12;7.25;;;2.17;;
55090;SDS011;40985;53.180;5.800;2024-02-26T13:12:45;6.15;;;1.70;;
55090;SDS011;40985;53.180;5.800;2024-02-26T13:15:16;6.13;;;1.50;;
55090;SDS011;40985;53.180;5.800;2024-02-26T13:17:43;4.55;;;1.23;;
55090;SDS011;40985;53.180;5.800;2024-02-26T13:20:09;8.07;;;2.10;;
55090;SDS011;40985;53.180;5.800;2024-02-26T13:22:35;4.75;;;0.93;;
55090;SDS011;40985;53.180;5.800;2024-02-26T13:25:02;5.38;;;1.33;;
55090;SDS011;40985;53.180;5.800;2024-02-26T13:27:28;5.28;;;1.00;;
55090;SDS011;40985;53.180;5.800;2024-02-26T13:32:38;7.03;;;1.33;;
55090;SDS011;40985;53.180;5.800;2024-02-26T13:37:32;3.25;;;0.60;;
55090;SDS011;40985;53.180;5.800;2024-02-26T13:39:59;5.13;;;0.80;;
55090;SDS011;40985;53.180;5.800;2024-02-26T13:42:24;3.13;;;0.68;;
55090;SDS011;40985;53.180;5.800;2024-02-26T13:44:50;3.60;;;1.42;;
55090;SDS011;40985;53.180;5.800;2024-02-26T13:47:16;4.18;;;0.68;;
55090;SDS011;40985;53.180;5.800;2024-02-26T13:49:43;5.63;;;0.65;;
55090;SDS011;40985;53.180;5.800;2024-02-26T13:52:09;4.78;;;1.30;;
55090;SDS011;40985;53.180;5.800;2024-02-26T13:54:34;6.32;;;1.10;;
55090;SDS011;40985;53.180;5.800;2024-02-26T13:57:00;10.60;;;1.23;;
55090;SDS011;40985;53.180;5.800;2024-02-26T13:59:26;6.45;;;1.80;;
55090;SDS011;40985;53.180;5.800;2024-02-26T14:01:51;6.72;;;1.20;;
55090;SDS011;40985;53.180;5.800;2024-02-26T14:04:20;5.63;;;1.30;;
55090;SDS011;40985;53.180;5.800;2024-02-26T14:06:45;4.53;;;0.55;;
55090;SDS011;40985;53.180;5.800;2024-02-26T14:09:11;4.63;;;0.70;;
55090;SDS011;40985;53.180;5.800;2024-02-26T14:11:43;6.43;;;1.20;;
55090;SDS011;40985;53.180;5.800;2024-02-26T14:14:10;3.08;;;0.80;;
55090;SDS011;40985;53.180;5.800;2024-02-26T14:16:36;5.40;;;1.52;;
55090;SDS011;40985;53.180;5.800;2024-02-26T14:19:01;2.05;;;0.98;;
55090;SDS011;40985;53.180;5.800;2024-02-26T14:21:28;4.07;;;2.13;;
55090;SDS011;40985;53.180;5.800;2024-02-26T14:23:55;2.92;;;0.70;;
55090;SDS011;40985;53.180;5.800;2024-02-26T14:26:21;2.88;;;0.50;;
55090;SDS011;40985;53.180;5.800;2024-02-26T14:28:47;2.28;;;0.50;;
55090;SDS011;40985;53.180;5.800;2024-02-26T14:31:16;2.33;;;0.80;;
55090;SDS011;40985;53.180;5.800;2024-02-26T14:33:42;5.13;;;0.60;;
55090;SDS011;40985;53.180;5.800;2024-02-26T14:36:08;3.10;;;0.50;;
55090;SDS011;40985;53.180;5.800;2024-02-26T14:38:35;2.72;;;0.57;;
55090;SDS011;40985;53.180;5.800;2024-02-26T14:41:01;3.38;;;0.57;;
55090;SDS011;40985;53.180;5.800;2024-02-26T14:43:27;3.90;;;0.40;;
55090;SDS011;40985;53.180;5.800;2024-02-26T14:45:53;7.35;;;0.90;;
55090;SDS011;40985;53.180;5.800;2024-02-26T14:48:19;7.88;;;0.70;;
55090;SDS011;40985;53.180;5.800;2024-02-26T14:50:45;7.43;;;0.85;;
55090;SDS011;40985;53.180;5.800;2024-02-26T14:53:10;4.20;;;0.50;;
55090;SDS011;40985;53.180;5.800;2024-02-26T14:55:36;4.38;;;0.60;;